Time;durP1;ratioP1;P1;durP2;ratioP2;P2;SDS_P1;SDS_P2;PMS_P1;PMS_P2;Temp;Humidity;BMP_temperature;BMP_pressure;BME280_temperature;BME280_humidity;BME280_pressure;Samples;Min_cycle;Max_cycle;Signal;HPM_P1;HPM_P2
2022/08/21 00:00:33;;;;;;;5.30;2.20;;;19.60;51.30;;;22.36;37.32;97708.41;5006569;28;20064;-41
2022/08/21 00:03:05;;;;;;;4.18;2.30;;;19.60;51.30;;;22.38;37.42;97711.72;5006736;28;20181;-40
2022/08/21 00:05:38;;;;;;;3.25;2.38;;;19.60;51.50;;;22.36;37.95;97713.03;5006131;28;20366;-41
2022/08/21 00:08:07;;;;;;;3.80;2.50;;;19.50;51.80;;;22.32;37.59;97709.94;5007458;28;20064;-41
2022/08/21 00:10:34;;;;;;;4.15;2.20;;;19.40;51.70;;;22.31;37.75;97713.72;5007207;28;20291;-41
2022/08/21 00:13:05;;;;;;;3.85;2.58;;;19.50;51.80;;;22.30;38.03;97709.34;5007637;28;20054;-41
2022/08/21 00:15:36;;;;;;;3.97;2.30;;;19.50;51.80;;;22.30;37.78;97709.34;5005041;28;20060;-40
2022/08/21 00:18:07;;;;;;;3.97;2.22;;;19.50;51.70;;;22.22;37.82;97706.97;5007560;28;20233;-41
2022/08/21 00:20:37;;;;;;;3.35;2.60;;;19.40;52.00;;;22.23;38.06;97708.59;5007859;28;20176;-40
2022/08/21 00:23:05;;;;;;;5.65;3.17;;;19.40;52.00;;;22.16;38.07;97708.72;5007110;28;20344;-40
2022/08/21 00:25:33;;;;;;;3.95;2.65;;;19.30;52.20;;;22.15;38.32;97712.50;5008042;28;20041;-41
2022/08/21 00:28:01;;;;;;;5.32;2.90;;;19.30;52.50;;;22.14;38.44;97710.84;5006182;28;20052;-41
2022/08/21 00:30:30;;;;;;;3.88;2.60;;;19.30;52.50;;;22.10;38.35;97711.53;5006245;28;20069;-40
2022/08/21 00:32:58;;;;;;;4.53;2.67;;;19.20;52.40;;;22.02;38.67;97708.13;5006307;28;20054;-40
2022/08/21 00:35:34;;;;;;;4.70;2.70;;;19.20;52.70;;;22.06;38.35;97700.31;5007374;28;20058;-40
2022/08/21 00:38:04;;;;;;;3.45;2.80;;;19.20;52.80;;;22.00;38.69;97703.97;5006609;28;20244;-40
2022/08/21 00:40:49;;;;;;;5.85;2.90;;;19.20;52.70;;;21.96;38.82;97702.78;5006659;28;20279;-40
2022/08/21 00:43:22;;;;;;;4.72;2.70;;;19.20;53.20;;;21.98;38.53;97706.09;5007103;28;20248;-40
2022/08/21 00:45:51;;;;;;;2.88;2.28;;;19.20;53.00;;;21.99;38.84;97697.75;5007582;28;20050;-41
2022/08/21 00:48:19;;;;;;;4.32;2.40;;;19.20;53.10;;;21.97;38.63;97699.84;5005921;28;20052;-40
2022/08/21 00:51:25;;;;;;;5.00;3.17;;;19.10;53.20;;;21.91;39.13;97694.56;5005076;28;20046;-40
2022/08/21 00:53:59;;;;;;;6.38;3.13;;;19.10;53.70;;;21.94;39.00;97692.19;5001983;28;20062;-40
2022/08/21 00:56:29;;;;;;;4.80;2.53;;;19.10;53.50;;;21.89;39.04;97693.94;5006613;28;20068;-40
2022/08/21 00:59:00;;;;;;;3.58;2.67;;;19.00;53.50;;;21.85;38.92;97688.19;5005431;28;20050;-40
2022/08/21 01:01:27;;;;;;;3.10;2.40;;;19.00;53.70;;;21.87;39.16;97688.78;5006181;28;20064;-40
2022/08/21 01:03:55;;;;;;;8.57;3.03;;;19.10;53.50;;;21.79;38.96;97686.38;5005587;28;20054;-40
2022/08/21 01:06:23;;;;;;;5.40;2.72;;;19.00;53.70;;;21.83;39.26;97693.00;5007602;28;20247;-40
2022/08/21 01:08:51;;;;;;;4.85;2.55;;;19.10;53.60;;;21.85;39.44;97685.47;5005527;28;20058;-40
2022/08/21 01:11:20;;;;;;;6.03;3.25;;;19.10;53.70;;;21.87;39.51;97690.63;5007194;28;20352;-40
2022/08/21 01:13:49;;;;;;;5.82;2.65;;;19.10;53.70;;;21.90;39.10;97690.19;5005094;28;20054;-40
2022/08/21 01:16:20;;;;;;;5.28;3.15;;;19.10;53.50;;;21.86;39.16;97689.81;5005803;28;20050;-40
2022/08/21 01:18:50;;;;;;;5.25;3.30;;;19.10;53.70;;;21.87;39.16;97690.63;5007070;28;20053;-40
2022/08/21 01:21:23;;;;;;;6.07;3.75;;;19.00;54.10;;;21.75;39.17;97696.88;5008530;28;20263;-40
2022/08/21 01:23:56;;;;;;;5.03;2.60;;;18.90;54.20;;;21.74;39.45;97695.22;5011319;28;20251;-40
2022/08/21 01:26:29;;;;;;;5.07;2.67;;;19.00;54.10;;;21.77;39.42;97697.47;5009881;28;20072;-40
2022/08/21 01:29:27;;;;;;;5.15;2.63;;;18.90;54.20;;;21.76;39.27;97690.38;5011396;28;20336;-40
2022/08/21 01:31:55;;;;;;;3.88;2.60;;;18.90;54.30;;;21.71;39.32;97689.44;5008654;28;20058;-40
2022/08/21 01:34:23;;;;;;;3.40;2.25;;;19.00;54.20;;;21.67;39.46;97682.81;5010039;28;20062;-40
2022/08/21 01:36:52;;;;;;;5.07;2.53;;;18.90;54.10;;;21.67;39.81;97685.53;5009791;28;20061;-40
2022/08/21 01:39:20;;;;;;;3.92;3.13;;;18.90;54.20;;;21.69;39.34;97684.22;5010071;28;20052;-40
2022/08/21 01:41:47;;;;;;;3.63;2.80;;;18.90;54.10;;;21.68;39.31;97688.00;5009686;28;20068;-40
2022/08/21 01:44:15;;;;;;;3.58;2.70;;;18.90;54.00;;;21.68;39.34;97677.19;5008245;28;20050;-40
2022/08/21 01:46:43;;;;;;;5.22;2.72;;;18.90;54.00;;;21.68;39.71;97676.34;5010265;28;20060;-40
2022/08/21 01:49:11;;;;;;;4.57;3.15;;;18.90;54.10;;;21.69;39.41;97680.72;5009030;28;20052;-40
2022/08/21 01:51:39;;;;;;;5.25;3.15;;;18.90;54.10;;;21.63;39.54;97685.16;5008902;28;20045;-40
2022/08/21 01:54:07;;;;;;;5.15;3.15;;;18.90;54.60;;;21.63;39.77;97679.75;5008866;28;20049;-40
2022/08/21 01:56:46;;;;;;;4.40;2.78;;;18.80;54.40;;;21.61;39.85;97679.16;5007984;28;20061;-40
2022/08/21 01:59:14;;;;;;;5.35;2.88;;;18.80;55.20;;;21.56;39.68;97671.72;5008760;28;20364;-40
2022/08/21 02:01:42;;;;;;;6.88;3.05;;;18.70;54.90;;;21.54;39.96;97671.13;5008526;28;20049;-40
2022/08/21 02:04:11;;;;;;;4.32;2.88;;;18.70;55.00;;;21.51;40.16;97673.47;5010047;28;20056;-40
2022/08/21 02:06:39;;;;;;;8.20;3.15;;;18.70;55.20;;;21.44;39.93;97668.13;5008244;28;20042;-40
2022/08/21 02:09:10;;;;;;;4.65;2.95;;;18.60;55.60;;;21.42;40.27;97660.25;5009710;28;20046;-40
2022/08/21 02:11:40;;;;;;;4.53;2.83;;;18.60;55.60;;;21.45;39.98;97666.28;5007460;28;20041;-40
2022/08/21 02:14:14;;;;;;;6.78;3.10;;;18.60;55.40;;;21.46;40.06;97671.47;5008944;28;20050;-40
2022/08/21 02:16:58;;;;;;;3.85;2.70;;;18.60;55.70;;;21.43;40.00;97664.63;5008181;28;20058;-39
2022/08/21 02:19:37;;;;;;;5.60;2.88;;;18.50;55.70;;;21.38;40.22;97663.63;5007655;28;20056;-40
2022/08/21 02:22:09;;;;;;;5.22;3.40;;;18.50;55.70;;;21.40;40.25;97666.91;5008681;28;20155;-40
2022/08/21 02:24:38;;;;;;;6.65;3.47;;;18.50;55.60;;;;;;5009703;28;20482;-40
2022/08/21 02:27:24;;;;;;;6.43;3.65;;;18.50;55.80;;;21.36;40.17;97666.56;5007473;28;20236;-40
2022/08/21 02:29:57;;;;;;;3.90;2.60;;;18.50;55.70;;;21.34;40.61;97663.25;5007084;28;20049;-40
2022/08/21 02:32:25;;;;;;;6.03;3.08;;;18.50;56.20;;;21.30;40.36;97659.34;5008377;28;20064;-40
2022/08/21 02:34:54;;;;;;;4.13;2.75;;;18.40;56.30;;;21.25;40.94;97656.53;5008254;28;20060;-39
2022/08/21 02:37:23;;;;;;;5.95;3.10;;;18.30;56.60;;;21.20;40.72;97659.91;5007578;28;20360;-40
2022/08/21 02:39:51;;;;;;;4.07;2.40;;;18.20;57.00;;;21.14;41.28;97665.41;5008706;28;20261;-40
2022/08/21 02:42:20;;;;;;;5.80;2.65;;;18.20;57.30;;;21.10;40.89;97659.63;5007252;28;20048;-40
2022/08/21 02:44:47;;;;;;;4.80;3.08;;;18.10;57.60;;;21.04;41.34;97661.38;5007824;28;20052;-40
2022/08/21 02:47:15;;;;;;;3.75;2.45;;;18.10;57.70;;;21.01;41.35;97661.00;5007202;28;20268;-40
2022/08/21 02:49:43;;;;;;;6.60;3.10;;;18.00;57.90;;;20.95;41.24;97665.44;5008155;28;20449;-40
2022/08/21 02:52:11;;;;;;;7.25;3.08;;;17.90;58.40;;;20.91;41.39;97661.53;5008570;28;20054;-40
2022/08/21 02:54:39;;;;;;;4.65;2.80;;;17.90;58.50;;;20.85;41.80;97665.97;5008921;28;20068;-40
2022/08/21 02:57:08;;;;;;;5.43;2.90;;;17.80;58.60;;;20.78;41.50;97664.38;5008762;28;20348;-40
2022/08/21 02:59:36;;;;;;;5.68;2.72;;;17.70;58.90;;;20.75;41.83;97664.88;5007772;28;20230;-40
2022/08/21 03:02:03;;;;;;;5.95;3.47;;;17.70;58.90;;;20.72;42.08;97662.59;5008539;28;20049;-40
2022/08/21 03:04:32;;;;;;;5.65;2.75;;;17.70;59.00;;;20.67;42.21;97657.88;5009163;28;20061;-40
2022/08/21 03:07:00;;;;;;;4.07;2.97;;;17.70;59.20;;;20.63;42.41;97657.50;5007246;28;20381;-40
2022/08/21 03:09:28;;;;;;;4.78;2.92;;;17.70;59.40;;;20.62;42.46;97658.53;5007623;28;20049;-40
2022/08/21 03:11:55;;;;;;;3.08;2.53;;;17.60;59.50;;;20.63;42.27;97654.78;5006763;28;20076;-40
2022/08/21 03:14:23;;;;;;;5.53;2.67;;;17.60;59.40;;;20.61;42.46;97662.31;5007980;28;20050;-41
2022/08/21 03:16:51;;;;;;;5.95;3.08;;;17.60;59.30;;;20.57;42.34;97652.97;5007792;28;20062;-40
2022/08/21 03:19:20;;;;;;;5.40;3.13;;;17.60;59.40;;;20.56;42.41;97655.88;5008089;28;20057;-40
2022/08/21 03:21:48;;;;;;;3.20;2.60;;;17.60;59.50;;;20.53;42.44;97659.88;5006646;28;20063;-40
2022/08/21 03:24:16;;;;;;;5.03;3.17;;;17.60;59.70;;;20.53;42.54;97654.47;5007001;28;20344;-40
2022/08/21 03:26:47;;;;;;;4.10;2.88;;;17.60;59.70;;;20.50;42.51;97657.59;5008915;28;20046;-40
2022/08/21 03:29:16;;;;;;;7.50;3.05;;;17.50;60.20;;;20.42;42.66;97653.31;5007274;28;20042;-40
2022/08/21 03:31:44;;;;;;;5.43;2.92;;;17.40;60.40;;;20.39;42.96;97659.16;5007664;28;20058;-40
2022/08/21 03:34:12;;;;;;;8.82;3.08;;;17.40;60.30;;;20.39;42.99;97651.06;5006145;28;20065;-40
2022/08/21 03:36:40;;;;;;;4.65;3.00;;;17.40;60.20;;;20.42;42.68;97655.19;5008327;28;20056;-40
2022/08/21 03:39:10;;;;;;;3.95;2.72;;;17.50;60.10;;;20.42;42.93;97655.19;5007516;28;20068;-40
2022/08/21 03:41:38;;;;;;;10.43;3.72;;;17.50;60.10;;;20.41;42.84;97657.09;5006906;28;20060;-40
2022/08/21 03:44:05;;;;;;;4.70;3.03;;;17.50;60.00;;;20.41;43.00;97653.53;5006520;28;20060;-40
2022/08/21 03:46:33;;;;;;;4.45;3.28;;;17.50;60.20;;;20.42;42.88;97652.50;5006279;28;20080;-40
2022/08/21 03:49:02;;;;;;;4.00;2.92;;;17.60;59.80;;;20.44;42.88;97658.50;5007604;28;20247;-40
2022/08/21 03:51:32;;;;;;;3.72;2.95;;;17.60;59.60;;;20.38;42.69;97657.53;5006117;28;20050;-40
2022/08/21 03:53:59;;;;;;;5.45;3.13;;;17.50;59.80;;;20.39;42.85;97653.75;5005956;28;20381;-40
2022/08/21 03:56:27;;;;;;;5.43;3.22;;;17.50;59.90;;;20.38;42.75;97657.53;5007329;28;20046;-40
2022/08/21 03:58:56;;;;;;;6.90;3.35;;;17.50;59.90;;;20.39;42.98;97661.03;5007052;28;20050;-40
2022/08/21 04:01:24;;;;;;;4.35;3.20;;;17.50;59.90;;;20.38;42.93;97662.94;5008002;28;20056;-40
2022/08/21 04:03:52;;;;;;;5.10;3.05;;;17.50;59.80;;;20.38;42.73;97667.53;5006721;28;20057;-40
2022/08/21 04:06:20;;;;;;;6.40;3.10;;;17.50;59.70;;;20.37;42.77;97671.25;5007367;28;20056;-40
2022/08/21 04:08:48;;;;;;;5.90;3.35;;;17.50;60.00;;;20.38;42.91;97667.53;5006118;28;20046;-40
2022/08/21 04:11:16;;;;;;;9.50;3.80;;;17.50;59.80;;;20.37;42.97;97673.97;5007276;28;20045;-39
2022/08/21 04:13:44;;;;;;;4.90;2.70;;;17.50;60.00;;;20.36;42.92;97675.84;5006663;28;20054;-40
2022/08/21 04:16:13;;;;;;;7.43;3.63;;;17.50;60.00;;;20.35;42.95;97684.16;5007909;28;20052;-40
2022/08/21 04:18:42;;;;;;;4.90;3.38;;;17.50;60.10;;;20.35;42.93;97686.88;5006937;28;20243;-40
2022/08/21 04:21:11;;;;;;;7.75;3.63;;;17.40;60.10;;;20.34;42.88;97679.84;5006717;28;20076;-40
2022/08/21 04:23:40;;;;;;;4.65;3.00;;;17.40;60.00;;;20.36;43.04;97685.84;5007067;28;20053;-40
2022/08/21 04:26:08;;;;;;;3.97;2.97;;;17.50;60.00;;;20.37;43.14;97684.78;4988920;28;20364;-40
2022/08/21 04:28:35;;;;;;;5.95;2.92;;;17.50;59.90;;;20.38;43.20;97694.56;5005752;28;20056;-40
2022/08/21 04:31:03;;;;;;;4.78;3.08;;;17.60;60.00;;;20.36;43.28;97692.06;5007731;28;20072;-40
2022/08/21 04:33:31;;;;;;;4.22;3.17;;;17.50;60.00;;;20.36;43.29;97693.94;5006588;28;20056;-39
2022/08/21 04:36:00;;;;;;;6.00;3.67;;;17.50;60.40;;;20.31;43.56;97700.00;5007061;28;20267;-40
2022/08/21 04:38:27;;;;;;;5.55;3.15;;;17.40;60.90;;;20.25;43.50;97695.50;5006687;28;20376;-40
2022/08/21 04:41:05;;;;;;;5.22;3.50;;;17.30;61.10;;;20.23;43.48;97705.69;5007943;28;20357;-40
2022/08/21 04:43:33;;;;;;;6.03;3.13;;;17.20;61.50;;;20.19;43.39;97702.59;5007034;28;20056;-40
2022/08/21 04:46:01;;;;;;;4.65;3.45;;;17.20;61.60;;;20.16;43.52;97703.06;5004396;28;20046;-40
2022/08/21 04:48:29;;;;;;;6.50;3.42;;;17.20;61.70;;;20.14;43.73;97702.47;5006518;28;20473;-40
2022/08/21 04:51:07;;;;;;;8.25;3.92;;;17.20;61.80;;;20.13;44.00;97705.38;5006756;28;20057;-40
2022/08/21 04:53:58;;;;;;;4.72;3.17;;;17.20;62.50;;;20.11;44.06;97702.06;5009169;28;20045;-40
2022/08/21 04:56:51;;;;;;;5.85;3.10;;;17.20;63.20;;;20.08;44.01;97706.03;5008734;28;20058;-40
2022/08/21 04:59:35;;;;;;;4.57;3.42;;;17.10;63.90;;;20.08;43.98;97707.91;5009632;28;20228;-40
2022/08/21 05:02:06;;;;;;;4.30;3.53;;;17.10;63.10;;;20.06;44.04;97708.13;5009318;28;20046;-40
2022/08/21 05:04:41;;;;;;;6.43;3.83;;;17.00;63.00;;;20.04;44.20;97700.22;5009184;28;20054;-40
2022/08/21 05:07:22;;;;;;;10.10;4.45;;;17.10;63.20;;;20.02;44.30;97702.31;5010426;28;20048;-40
2022/08/21 05:10:12;;;;;;;4.63;3.45;;;17.10;63.50;;;20.03;44.59;97712.09;5009080;28;20065;-40
2022/08/21 05:12:42;;;;;;;6.43;3.50;;;17.10;63.30;;;20.02;44.58;97709.63;5009042;28;20057;-40
2022/08/21 05:15:11;;;;;;;6.25;3.45;;;17.20;64.20;;;20.05;44.52;97714.59;5010257;28;20050;-40
2022/08/21 05:17:43;;;;;;;4.30;3.10;;;17.10;63.00;;;20.04;44.79;97719.16;5010332;28;20058;-40
2022/08/21 05:20:28;;;;;;;5.35;3.03;;;17.20;63.50;;;20.10;44.63;97717.44;5009944;28;20046;-40
2022/08/21 05:22:57;;;;;;;7.78;4.15;;;17.20;63.20;;;20.14;44.68;97720.53;5009804;28;20063;-40
2022/08/21 05:25:25;;;;;;;7.97;3.53;;;17.30;63.00;;;20.17;44.23;97720.94;5008434;28;20053;-39
2022/08/21 05:27:54;;;;;;;6.25;4.22;;;17.40;62.40;;;20.21;44.49;97732.13;5008762;28;20156;-40
2022/08/21 05:30:27;;;;;;;6.90;3.38;;;17.40;62.40;;;20.23;44.25;97730.84;5010653;28;20057;-40
2022/08/21 05:32:59;;;;;;;9.27;3.95;;;17.40;62.10;;;20.26;44.37;97732.31;5007915;28;20062;-40
2022/08/21 05:35:29;;;;;;;4.55;3.38;;;17.50;62.50;;;20.27;44.45;97733.94;5009447;28;20233;-40
2022/08/21 05:37:58;;;;;;;5.00;3.17;;;17.50;62.70;;;20.32;44.38;97731.41;5009142;28;20076;-40
2022/08/21 05:40:27;;;;;;;10.68;5.07;;;17.50;62.20;;;20.36;44.34;97737.22;5007386;28;20063;-40
2022/08/21 05:42:56;;;;;;;10.50;3.75;;;17.50;62.00;;;20.41;44.13;97731.94;5009475;28;20060;-40
2022/08/21 05:45:30;;;;;;;5.65;3.20;;;17.60;62.60;;;20.45;44.21;97738.56;5010204;28;20057;-40
2022/08/21 05:48:16;;;;;;;6.00;3.65;;;17.70;62.50;;;20.51;44.07;97739.53;5010123;28;20048;-40
2022/08/21 05:50:47;;;;;;;6.18;3.45;;;17.70;61.40;;;20.57;44.12;97746.75;5008853;28;20259;-40
2022/08/21 05:53:18;;;;;;;6.07;3.55;;;17.80;61.30;;;20.59;44.08;97745.53;5008163;28;20046;-40
2022/08/21 05:55:47;;;;;;;6.68;3.75;;;17.80;61.20;;;20.61;43.78;97732.63;5007912;28;20125;-40
2022/08/21 05:58:18;;;;;;;5.13;3.08;;;17.90;61.20;;;20.67;43.88;97739.03;5008265;28;20046;-40
2022/08/21 06:00:48;;;;;;;4.65;3.13;;;17.90;60.60;;;20.71;43.67;97736.69;5008583;28;20344;-40
2022/08/21 06:03:42;;;;;;;6.30;3.65;;;17.90;60.40;;;20.74;43.27;97736.22;5008084;28;20060;-40
2022/08/21 06:06:11;;;;;;;4.90;3.63;;;18.00;59.90;;;20.78;43.16;97743.69;5006288;28;20344;-40
2022/08/21 06:08:38;;;;;;;7.15;3.25;;;18.00;59.90;;;20.79;43.39;97748.03;5008854;28;20052;-40
2022/08/21 06:11:10;;;;;;;7.05;3.47;;;18.00;59.90;;;20.82;43.29;97741.34;5006721;28;20358;-40
2022/08/21 06:13:38;;;;;;;9.55;4.00;;;18.10;59.80;;;20.84;43.13;97745.50;5009324;28;20056;-40
2022/08/21 06:16:12;;;;;;;9.75;3.50;;;18.10;59.70;;;20.88;43.00;97739.63;5009060;28;20063;-40
2022/08/21 06:18:44;;;;;;;10.00;3.50;;;18.10;59.50;;;20.92;43.35;97740.81;5008708;28;20058;-40
2022/08/21 06:21:13;;;;;;;10.43;4.25;;;18.20;59.50;;;20.94;43.15;97741.44;5008419;28;20049;-40
2022/08/21 06:23:43;;;;;;;6.55;4.03;;;18.20;59.40;;;20.98;43.35;97746.16;5008438;28;20093;-40
2022/08/21 06:26:13;;;;;;;6.10;3.38;;;18.30;59.40;;;21.03;43.15;97746.34;5008443;28;20698;-40
2022/08/21 06:28:42;;;;;;;10.65;3.47;;;18.40;59.30;;;21.12;42.85;97746.03;5009220;28;20741;-40
2022/08/21 06:31:20;;;;;;;6.30;3.67;;;18.40;59.00;;;21.17;43.04;97749.72;5007601;28;20064;-40
2022/08/21 06:33:48;;;;;;;5.30;3.40;;;18.50;58.90;;;21.23;42.88;97748.78;5011242;28;20076;-40
2022/08/21 06:36:17;;;;;;;10.20;3.65;;;18.50;59.10;;;21.28;43.08;97747.28;5027906;28;20251;-41
2022/08/21 06:38:45;;;;;;;6.78;3.80;;;18.60;58.90;;;21.35;42.59;97743.44;5028288;28;20057;-40
2022/08/21 06:41:19;;;;;;;5.40;3.33;;;18.70;58.60;;;21.38;42.51;97742.16;5026832;28;20499;-40
2022/08/21 06:43:54;;;;;;;6.80;3.67;;;18.70;58.20;;;21.40;42.48;97746.31;5024436;28;20271;-40
2022/08/21 06:46:28;;;;;;;7.10;3.45;;;18.80;58.10;;;21.43;42.47;97742.28;5026802;28;20041;-40
2022/08/21 06:48:57;;;;;;;8.02;3.67;;;18.80;57.60;;;21.45;42.45;97732.09;5026939;28;20049;-40
2022/08/21 06:51:26;;;;;;;8.27;4.47;;;18.80;57.70;;;21.49;42.15;97732.47;5026485;28;20049;-40
2022/08/21 06:53:55;;;;;;;7.38;3.50;;;18.90;57.70;;;21.56;42.05;97733.22;5026550;28;20057;-40
2022/08/21 06:56:26;;;;;;;7.32;3.63;;;19.00;57.50;;;21.55;42.34;97735.06;5026962;28;20049;-40
2022/08/21 06:58:53;;;;;;;6.72;4.40;;;18.90;57.40;;;21.60;42.05;97737.94;5027662;28;20077;-40
2022/08/21 07:01:25;;;;;;;8.48;4.30;;;19.00;57.20;;;21.66;41.98;97736.19;5026887;28;20045;-40
2022/08/21 07:03:53;;;;;;;8.50;4.78;;;19.10;57.20;;;21.71;42.34;97738.19;5026127;28;20061;-40
2022/08/21 07:06:21;;;;;;;11.07;4.32;;;19.10;57.10;;;21.73;41.83;97736.06;5027609;28;20379;-40
2022/08/21 07:08:49;;;;;;;4.90;3.20;;;19.20;57.00;;;21.76;41.73;97731.03;5026945;28;20072;-40
2022/08/21 07:11:23;;;;;;;5.55;3.92;;;19.20;57.00;;;21.81;41.86;97739.28;5027337;28;20064;-41
2022/08/21 07:13:53;;;;;;;4.68;3.38;;;19.30;56.80;;;21.81;42.11;97730.34;5026452;28;20063;-40
2022/08/21 07:16:23;;;;;;;5.78;3.72;;;19.30;56.80;;;21.80;41.45;97736.81;5025649;28;20060;-41
2022/08/21 07:18:51;;;;;;;8.70;3.17;;;19.30;56.30;;;21.82;41.89;97734.69;5027904;28;20687;-40
2022/08/21 07:21:19;;;;;;;5.90;3.53;;;19.30;56.60;;;21.82;41.99;97732.81;5027120;28;20068;-40
2022/08/21 07:23:53;;;;;;;8.10;4.55;;;19.30;56.30;;;21.96;41.65;97732.59;5026632;28;20050;-40
2022/08/21 07:26:23;;;;;;;9.98;4.15;;;19.40;56.40;;;21.98;41.02;97735.91;5026669;28;20112;-41
2022/08/21 07:28:51;;;;;;;7.68;3.65;;;19.40;55.80;;;22.07;41.38;97734.53;5026573;28;20071;-40
2022/08/21 07:31:22;;;;;;;8.38;4.05;;;19.50;55.60;;;22.13;40.92;97733.59;5025422;28;20272;-41
2022/08/21 07:33:51;;;;;;;5.97;4.35;;;19.60;55.60;;;22.19;40.66;97734.53;5026110;28;20053;-40
2022/08/21 07:36:19;;;;;;;8.48;4.88;;;19.60;55.00;;;22.19;41.01;97727.22;5026603;28;20348;-40
2022/08/21 07:38:47;;;;;;;7.70;4.15;;;19.70;55.50;;;22.24;40.92;97726.53;5026755;28;20360;-40
2022/08/21 07:41:28;;;;;;;9.52;4.38;;;19.70;56.20;;;22.34;40.89;97732.22;5026148;28;20045;-40
2022/08/21 07:43:57;;;;;;;6.65;3.47;;;19.80;55.40;;;22.41;41.06;97732.09;5026766;28;20073;-40
2022/08/21 07:46:26;;;;;;;7.35;4.35;;;19.90;55.60;;;22.47;41.00;97727.63;5026515;28;20057;-40
2022/08/21 07:48:54;;;;;;;6.43;4.28;;;20.00;55.50;;;22.51;41.29;97720.69;5026353;28;20049;-40
2022/08/21 07:51:28;;;;;;;7.50;4.07;;;20.00;55.40;;;22.57;41.05;97723.28;5026379;28;20053;-40
2022/08/21 07:53:59;;;;;;;7.97;4.63;;;20.10;55.40;;;22.64;40.98;97719.63;5025685;28;20108;-40
2022/08/21 07:56:29;;;;;;;7.47;3.97;;;20.10;55.20;;;22.58;40.65;97721.38;5026883;28;20056;-40
2022/08/21 07:58:57;;;;;;;10.43;4.72;;;20.20;54.90;;;22.61;41.06;97715.50;5025460;28;20225;-39
2022/08/21 08:01:25;;;;;;;7.57;4.47;;;20.20;55.00;;;22.68;41.18;97713.50;5026529;28;20061;-40
2022/08/21 08:03:54;;;;;;;5.97;4.70;;;20.20;55.20;;;22.72;40.82;97713.81;5026308;28;20064;-41
2022/08/21 08:06:23;;;;;;;6.72;4.35;;;20.20;55.00;;;22.74;40.70;97717.13;5027094;28;20366;-40
2022/08/21 08:08:50;;;;;;;5.85;3.55;;;20.30;55.00;;;22.80;40.96;97718.91;5026596;28;20045;-40
2022/08/21 08:11:18;;;;;;;6.90;3.58;;;20.30;55.20;;;22.77;40.98;97720.19;5025903;28;20336;-40
2022/08/21 08:13:52;;;;;;;9.45;3.97;;;20.40;54.80;;;22.85;40.56;97715.47;5026043;28;20061;-40
2022/08/21 08:16:20;;;;;;;5.70;3.45;;;20.40;54.70;;;22.91;41.00;97711.78;5025792;28;20064;-40
2022/08/21 08:18:48;;;;;;;9.38;4.30;;;20.40;54.80;;;22.95;40.86;97716.53;5026361;28;20057;-40
2022/08/21 08:21:16;;;;;;;8.20;3.80;;;20.50;54.60;;;23.04;40.34;97711.56;5024429;28;20064;-48
2022/08/21 08:23:44;;;;;;;7.55;4.05;;;20.60;54.20;;;23.03;40.62;97706.38;5025638;28;20243;-40
2022/08/21 08:26:12;;;;;;;6.18;4.32;;;20.60;54.40;;;23.07;40.30;97711.09;5026185;28;20084;-40
2022/08/21 08:28:40;;;;;;;9.15;3.80;;;20.60;54.20;;;23.14;40.65;97709.03;5028923;28;20041;-41
2022/08/21 08:31:08;;;;;;;9.98;4.05;;;20.70;54.40;;;23.19;39.96;97709.16;5030524;28;20057;-41
2022/08/21 08:33:36;;;;;;;8.85;4.25;;;20.70;53.20;;;23.22;39.56;97707.03;5029205;28;20087;-41
2022/08/21 08:36:04;;;;;;;6.78;4.20;;;20.80;52.70;;;23.29;39.58;97705.81;5030792;28;20229;-40
2022/08/21 08:38:34;;;;;;;5.22;4.10;;;20.80;52.50;;;23.36;39.10;97703.78;5028225;28;20535;-40
2022/08/21 08:41:15;;;;;;;9.57;4.40;;;20.90;52.20;;;23.33;38.99;97701.56;5030386;28;20263;-41
2022/08/21 08:43:53;;;;;;;8.30;4.07;;;20.90;50.60;;;23.42;39.02;97687.56;5030087;28;20731;-40
2022/08/21 08:46:45;;;;;;;5.82;4.13;;;21.00;51.00;;;23.47;38.90;97688.50;5029903;28;20053;-41
2022/08/21 08:49:26;;;;;;;6.05;3.53;;;21.00;50.20;;;23.54;38.48;97694.63;5028870;28;20097;-40
2022/08/21 08:52:22;;;;;;;5.13;3.30;;;21.10;51.20;;;23.56;38.10;97684.31;5029658;28;20075;-41
2022/08/21 08:55:13;;;;;;;6.00;3.78;;;21.10;48.70;;;23.60;37.67;97681.94;5029848;28;20351;-40
2022/08/21 08:57:46;;;;;;;7.72;4.00;;;21.10;49.70;;;23.63;37.72;97681.44;5029750;28;20049;-41
2022/08/21 09:00:20;;;;;;;10.18;4.25;;;21.20;49.70;;;23.65;37.14;97681.22;5030896;28;20454;-41
2022/08/21 09:02:57;;;;;;;5.53;4.07;;;21.20;49.00;;;23.71;37.16;97674.78;5028669;28;20055;-40
2022/08/21 09:05:56;;;;;;;8.05;3.70;;;21.30;48.60;;;23.77;37.40;97684.69;5028290;28;20056;-40
2022/08/21 09:08:58;;;;;;;5.53;3.95;;;21.30;48.90;;;23.88;37.19;97681.09;5030166;28;20049;-40
2022/08/21 09:11:44;;;;;;;6.72;3.70;;;21.40;47.40;;;23.91;36.94;97680.63;5030074;28;20053;-41
2022/08/21 09:14:36;;;;;;;7.22;3.85;;;21.50;47.50;;;23.94;36.78;97682.00;5031098;28;20055;-41
2022/08/21 09:17:58;;;;;;;6.32;3.80;;;21.60;47.50;;;24.02;37.55;97670.75;5029308;28;20340;-41
2022/08/21 09:20:53;;;;;;;6.45;3.90;;;21.60;48.30;;;24.11;37.03;97671.97;5028807;28;20057;-41
2022/08/21 09:24:18;;;;;;;9.35;4.55;;;21.70;48.00;;;24.09;36.50;97674.09;5029200;28;20050;-40
2022/08/21 09:27:08;;;;;;;6.97;4.05;;;21.70;46.80;;;24.21;36.38;97665.03;5007762;28;20079;-41
2022/08/21 09:29:40;;;;;;;7.22;3.65;;;21.80;46.50;;;24.24;35.81;97668.09;5009215;28;20054;-40
2022/08/21 09:32:19;;;;;;;7.13;4.20;;;21.90;46.60;;;24.35;35.70;97666.34;5008898;28;20056;-40
2022/08/21 09:35:08;;;;;;;8.73;4.20;;;21.90;45.70;;;24.31;35.72;97660.59;5027385;28;20053;-40
2022/08/21 09:38:02;;;;;;;6.32;3.60;;;22.00;44.00;;;24.41;34.96;97662.63;5028943;28;20059;-42
2022/08/21 09:40:43;;;;;;;8.20;3.78;;;22.10;43.80;;;24.49;34.93;97667.63;5029003;28;20061;-39
2022/08/21 09:43:20;;;;;;;6.68;3.85;;;22.20;43.90;;;24.55;35.20;97661.22;5028848;28;20063;-40
2022/08/21 09:46:00;;;;;;;6.38;4.28;;;22.20;44.20;;;24.60;35.22;97662.38;5029359;28;20542;-44
2022/08/21 09:48:29;;;;;;;7.63;3.70;;;22.20;45.60;;;24.66;35.57;97654.03;5028859;28;20053;-41
2022/08/21 09:51:12;;;;;;;5.75;3.55;;;22.30;46.10;;;24.75;34.79;97654.41;5028278;28;20365;-41
2022/08/21 09:54:07;;;;;;;6.88;3.63;;;22.30;44.40;;;24.76;34.61;97648.72;5009565;28;20049;-40
2022/08/21 09:59:51;;;;;;;7.55;3.40;;;22.40;44.70;;;24.89;34.58;97647.53;5007916;28;20050;-40
2022/08/21 10:02:29;;;;;;;5.32;3.58;;;22.40;45.00;;;24.85;34.24;97649.06;5009131;28;20060;-41
2022/08/21 10:05:09;;;;;;;5.20;4.13;;;22.50;44.60;;;24.76;33.65;97647.91;5009879;28;20060;-41
2022/08/21 10:07:38;;;;;;;6.60;3.28;;;22.50;43.80;;;24.79;33.94;97641.94;5008216;28;20057;-40
2022/08/21 10:10:19;;;;;;;6.13;3.55;;;22.50;42.80;;;24.93;34.09;97636.91;5008575;28;20046;-41
2022/08/21 10:13:05;;;;;;;6.47;3.97;;;22.60;43.00;;;24.91;34.03;97639.06;5009024;28;20063;-41
2022/08/21 10:16:00;;;;;;;6.18;3.80;;;22.60;43.40;;;25.04;33.72;97641.41;4989552;28;20054;-40
2022/08/21 10:18:42;;;;;;;6.60;4.00;;;22.70;42.30;;;25.05;33.47;97632.19;4989199;28;20051;-42
2022/08/21 10:21:35;;;;;;;6.88;3.53;;;22.70;42.90;;;25.05;33.72;97634.09;4987659;28;20046;-40
2022/08/21 10:24:18;;;;;;;5.00;3.65;;;22.80;42.60;;;25.19;33.64;97629.06;4990879;28;20058;-41
2022/08/21 10:27:51;;;;;;;9.55;3.55;;;22.90;43.00;;;25.28;33.34;97632.97;4989525;28;20054;-40
2022/08/21 10:30:38;;;;;;;5.55;3.58;;;23.00;41.00;;;25.38;33.52;97624.09;4987879;28;20046;-40
2022/08/21 10:33:39;;;;;;;5.88;3.72;;;23.00;42.50;;;25.45;33.72;97627.44;4989453;28;20060;-40
2022/08/21 10:36:19;;;;;;;6.95;3.47;;;23.10;42.20;;;25.51;33.27;97621.81;4988299;28;20085;-40
2022/08/21 10:39:08;;;;;;;8.57;4.22;;;23.10;42.50;;;25.47;33.11;97620.66;4990721;28;20058;-40
2022/08/21 10:42:05;;;;;;;6.28;3.55;;;23.20;41.70;;;25.63;33.25;97616.19;4989454;28;20054;-40
2022/08/21 10:45:11;;;;;;;7.90;3.58;;;23.30;43.20;;;25.69;33.47;97617.03;4988914;28;20348;-40
2022/08/21 10:47:56;;;;;;;4.38;3.30;;;23.30;42.50;;;25.77;33.31;97607.56;4995875;28;20056;-40
2022/08/21 10:50:44;;;;;;;7.43;4.63;;;23.30;41.90;;;25.83;33.01;97611.97;5006923;28;20045;-40